createdAt,value
2019-01-23T00:00:04.252Z,104.20
2019-01-23T00:02:32.456Z,93.57
2019-01-23T00:05:00.656Z,94.30
2019-01-23T00:07:28.879Z,96.63
2019-01-23T00:09:57.079Z,95.50
2019-01-23T00:12:25.276Z,99.37
2019-01-23T00:14:53.500Z,97.63
2019-01-23T00:17:21.696Z,89.70
2019-01-23T00:19:49.890Z,84.77
2019-01-23T00:22:18.112Z,84.30
2019-01-23T00:24:46.303Z,68.33
2019-01-23T00:27:14.508Z,69.73
2019-01-23T00:29:42.895Z,55.73
2019-01-23T00:32:11.092Z,54.67
2019-01-23T00:34:39.289Z,52.97
2019-01-23T00:37:07.499Z,57.20
2019-01-23T00:39:35.703Z,51.83
2019-01-23T00:42:03.912Z,58.67
2019-01-23T00:44:32.135Z,54.73
2019-01-23T00:47:00.332Z,59.53
2019-01-23T00:49:28.533Z,52.13
2019-01-23T00:51:56.757Z,63.20
2019-01-23T00:54:25.017Z,46.20
2019-01-23T00:56:53.220Z,51.53
2019-01-23T00:59:22.019Z,47.90
2019-01-23T01:01:50.211Z,48.03
2019-01-23T01:04:18.411Z,53.70
2019-01-23T01:06:46.637Z,51.33
2019-01-23T01:09:14.823Z,49.17
2019-01-23T01:11:43.024Z,49.73
2019-01-23T01:14:11.251Z,53.50
2019-01-23T01:16:39.444Z,55.73
2019-01-23T01:19:07.635Z,48.53
2019-01-23T01:21:35.896Z,52.33
2019-01-23T01:24:04.087Z,52.57
2019-01-23T01:26:32.287Z,47.83
2019-01-23T01:29:00.513Z,51.90
2019-01-23T01:31:28.708Z,53.23
2019-01-23T01:36:43.332Z,49.57
2019-01-23T01:39:11.530Z,45.13
2019-01-23T01:41:39.728Z,48.90
2019-01-23T01:44:07.968Z,59.03
2019-01-23T01:46:36.159Z,55.00
2019-01-23T01:49:04.355Z,57.20
2019-01-23T01:51:32.577Z,58.60
2019-01-23T01:54:00.771Z,64.93
2019-01-23T01:56:28.969Z,55.47
2019-01-23T01:59:02.679Z,64.63
2019-01-23T02:01:27.043Z,64.80
2019-01-23T02:03:55.247Z,59.83
2019-01-23T02:06:23.474Z,69.73
2019-01-23T02:08:51.672Z,69.77
2019-01-23T02:11:19.869Z,58.13
2019-01-23T02:13:48.093Z,58.90
2019-01-23T02:16:16.292Z,57.77
2019-01-23T02:18:44.485Z,51.20
2019-01-23T02:21:12.704Z,57.83
2019-01-23T02:23:40.915Z,59.13
2019-01-23T02:26:09.107Z,52.57
2019-01-23T02:28:37.333Z,53.67
2019-01-23T02:31:05.537Z,53.30
2019-01-23T02:33:33.735Z,53.83
2019-01-23T02:36:01.966Z,54.60
2019-01-23T02:38:30.161Z,56.40
2019-01-23T02:40:58.366Z,54.27
2019-01-23T02:43:26.584Z,52.20
2019-01-23T02:45:54.783Z,59.47
2019-01-23T02:48:22.981Z,53.13
2019-01-23T02:50:51.204Z,56.03
2019-01-23T02:53:19.409Z,51.43
2019-01-23T02:55:47.608Z,52.67
2019-01-23T02:58:15.824Z,54.33
2019-01-23T03:00:44.020Z,59.73
2019-01-23T03:03:12.226Z,50.67
2019-01-23T03:05:40.460Z,49.27
2019-01-23T03:08:08.656Z,55.83
2019-01-23T03:10:36.855Z,51.27
2019-01-23T03:13:05.076Z,46.73
2019-01-23T03:15:33.276Z,48.07
2019-01-23T03:18:01.472Z,53.33
2019-01-23T03:20:29.700Z,48.10
2019-01-23T03:22:57.906Z,41.80
2019-01-23T03:25:26.088Z,37.53
2019-01-23T03:27:54.329Z,44.50
2019-01-23T03:30:22.525Z,42.23
2019-01-23T03:32:50.782Z,38.60
2019-01-23T03:35:19.018Z,41.13
2019-01-23T03:37:47.208Z,34.97
2019-01-23T03:40:16.727Z,38.67
2019-01-23T03:42:45.145Z,38.37
2019-01-23T03:45:14.013Z,39.33
2019-01-23T03:47:42.471Z,39.20
2019-01-23T03:50:11.960Z,38.37
2019-01-23T03:52:40.159Z,39.17
2019-01-23T03:55:09.325Z,40.90
2019-01-23T03:57:37.560Z,40.13
2019-01-23T04:00:07.380Z,44.50
2019-01-23T04:02:35.581Z,40.53
2019-01-23T04:05:05.072Z,40.80
2019-01-23T04:07:33.267Z,40.63
2019-01-23T04:10:01.471Z,43.10
2019-01-23T04:12:29.661Z,41.40
2019-01-23T04:14:57.835Z,43.07
2019-01-23T04:17:25.983Z,40.37
2019-01-23T04:19:54.513Z,37.57
2019-01-23T04:22:22.658Z,38.30
2019-01-23T04:24:50.812Z,38.80
2019-01-23T04:27:18.979Z,37.43
2019-01-23T04:29:47.130Z,42.73
2019-01-23T04:32:15.284Z,44.07
2019-01-23T04:34:43.467Z,39.67
2019-01-23T04:48:31.084Z,37.47
2019-01-23T04:51:00.867Z,37.20
2019-01-23T04:53:30.698Z,42.37
2019-01-23T04:55:58.836Z,38.67
2019-01-23T04:58:26.979Z,40.17
2019-01-23T05:00:55.151Z,42.87
2019-01-23T05:03:23.291Z,38.43
2019-01-23T05:05:51.437Z,39.40
2019-01-23T05:08:19.606Z,38.27
2019-01-23T05:10:47.769Z,37.87
2019-01-23T05:13:15.922Z,38.33
2019-01-23T05:15:44.105Z,37.83
2019-01-23T05:18:12.242Z,40.63
2019-01-23T05:20:40.394Z,37.23
2019-01-23T05:23:10.261Z,43.27
2019-01-23T05:25:39.521Z,41.53
2019-01-23T05:28:07.662Z,43.83
2019-01-23T05:30:35.838Z,46.57
2019-01-23T05:33:03.984Z,46.33
2019-01-23T05:35:32.142Z,47.37
2019-01-23T05:38:00.326Z,49.87
2019-01-23T05:40:28.471Z,45.87
2019-01-23T05:42:56.628Z,51.73
2019-01-23T05:45:24.810Z,45.43
2019-01-23T05:47:52.945Z,46.07
2019-01-23T05:50:21.100Z,50.03
2019-01-23T05:52:49.274Z,48.37
2019-01-23T05:55:17.416Z,45.73
2019-01-23T05:57:45.565Z,48.30
2019-01-23T06:00:15.211Z,44.13
2019-01-23T06:02:43.348Z,50.90
2019-01-23T06:05:11.500Z,46.17
2019-01-23T06:07:39.666Z,46.47
2019-01-23T06:10:08.688Z,44.33
2019-01-23T06:12:36.840Z,47.47
2019-01-23T06:15:06.690Z,41.53
2019-01-23T06:17:34.838Z,46.53
2019-01-23T06:20:04.062Z,40.40
2019-01-23T06:22:32.248Z,46.83
2019-01-23T06:25:00.397Z,42.97
2019-01-23T06:27:28.542Z,49.13
2019-01-23T06:29:56.721Z,41.97
2019-01-23T06:32:24.866Z,49.87
2019-01-23T06:34:53.010Z,40.17
2019-01-23T06:37:21.190Z,42.93
2019-01-23T06:39:49.335Z,44.47
2019-01-23T06:42:17.481Z,47.50
2019-01-23T06:44:45.656Z,42.00
2019-01-23T06:47:13.809Z,47.87
2019-01-23T06:49:41.951Z,43.23
2019-01-23T06:52:10.133Z,49.00
2019-01-23T06:54:38.279Z,48.07
2019-01-23T06:57:06.558Z,42.83
2019-01-23T06:59:34.814Z,47.80
2019-01-23T07:02:02.963Z,46.67
2019-01-23T07:04:31.103Z,44.23
2019-01-23T07:06:59.282Z,45.10
2019-01-23T07:09:27.424Z,50.70
2019-01-23T07:11:55.573Z,48.70
2019-01-23T07:14:23.750Z,50.60
2019-01-23T07:16:51.895Z,48.67
2019-01-23T07:19:20.039Z,52.03
2019-01-23T07:21:48.218Z,52.27
2019-01-23T07:24:16.378Z,52.00
2019-01-23T07:26:44.518Z,60.88
2019-01-23T07:29:12.699Z,57.67
2019-01-23T07:31:40.842Z,51.70
2019-01-23T07:34:09.006Z,50.23
2019-01-23T07:36:37.182Z,55.90
2019-01-23T07:39:06.962Z,50.40
2019-01-23T07:41:35.105Z,52.57
2019-01-23T07:44:03.300Z,52.43
2019-01-23T07:46:31.442Z,50.53
2019-01-23T07:48:59.591Z,54.20
2019-01-23T07:51:27.775Z,53.70
2019-01-23T07:53:55.915Z,52.53
2019-01-23T07:56:24.069Z,56.13
2019-01-23T07:58:52.237Z,58.63
2019-01-23T08:01:20.392Z,53.97
2019-01-23T08:03:48.538Z,53.77
2019-01-23T08:06:16.710Z,58.63
2019-01-23T08:08:44.853Z,52.27
2019-01-23T08:11:12.999Z,57.40
2019-01-23T08:13:41.190Z,57.23
2019-01-23T08:16:09.330Z,57.93
2019-01-23T08:18:37.475Z,57.47
2019-01-23T08:21:05.642Z,58.80
2019-01-23T08:23:33.799Z,60.23
2019-01-23T08:26:01.958Z,61.97
2019-01-23T08:28:30.123Z,63.03
2019-01-23T08:30:58.270Z,60.67
2019-01-23T08:33:26.421Z,53.17
2019-01-23T08:35:54.597Z,63.10
2019-01-23T08:38:22.748Z,58.97
2019-01-23T08:40:50.893Z,58.50
2019-01-23T08:43:19.074Z,61.20
2019-01-23T08:45:47.219Z,60.83
2019-01-23T08:48:15.362Z,58.47
2019-01-23T08:50:43.537Z,53.73
2019-01-23T08:53:11.683Z,62.40
2019-01-23T08:55:39.954Z,59.07
2019-01-23T08:58:08.134Z,61.37
2019-01-23T09:00:36.283Z,58.37
2019-01-23T09:03:04.865Z,62.43
2019-01-23T09:05:33.040Z,58.97
2019-01-23T09:08:01.199Z,59.60
2019-01-23T09:10:29.617Z,59.93
2019-01-23T09:12:57.814Z,58.17
2019-01-23T09:15:25.962Z,79.63
2019-01-23T09:17:54.101Z,58.97
2019-01-23T09:20:22.566Z,59.13
2019-01-23T09:22:50.710Z,61.30
2019-01-23T09:25:20.531Z,61.30
2019-01-23T09:27:48.715Z,58.73
2019-01-23T09:30:21.578Z,61.80
2019-01-23T09:33:07.762Z,57.17
2019-01-23T09:35:53.966Z,57.27
2019-01-23T09:38:23.778Z,58.20
2019-01-23T09:40:56.251Z,58.40
2019-01-23T09:43:29.025Z,57.67
2019-01-23T09:46:07.320Z,53.90
2019-01-23T09:48:37.122Z,57.73
2019-01-23T09:51:06.898Z,52.97
2019-01-23T09:53:36.666Z,56.80
2019-01-23T09:56:04.859Z,55.60
2019-01-23T09:58:33.002Z,55.30
2019-01-23T10:01:01.160Z,57.03
2019-01-23T10:03:29.334Z,55.47
2019-01-23T10:05:57.481Z,58.73
2019-01-23T10:08:25.624Z,56.63
2019-01-23T10:10:53.799Z,57.27
2019-01-23T10:13:21.941Z,53.93
2019-01-23T10:15:50.166Z,57.93
2019-01-23T10:18:18.348Z,53.53
2019-01-23T10:20:46.489Z,58.60
2019-01-23T10:23:14.646Z,54.00
2019-01-23T10:25:42.833Z,58.40
2019-01-23T10:28:10.980Z,57.43
2019-01-23T10:30:39.139Z,56.47
2019-01-23T10:33:07.317Z,51.43
2019-01-23T10:35:35.461Z,55.50
2019-01-23T10:38:03.602Z,54.07
2019-01-23T10:40:31.773Z,51.07
2019-01-23T10:42:59.920Z,47.83
2019-01-23T10:45:28.078Z,54.33
2019-01-23T10:47:56.370Z,51.13
2019-01-23T10:50:24.503Z,52.23
2019-01-23T10:52:52.646Z,47.73
2019-01-23T10:55:20.818Z,52.60
2019-01-23T10:57:48.966Z,51.13
2019-01-23T11:00:20.997Z,50.70
2019-01-23T11:02:49.171Z,50.87
2019-01-23T11:05:18.686Z,45.17
2019-01-23T11:07:46.838Z,56.13
2019-01-23T11:10:16.377Z,50.33
2019-01-23T11:12:44.523Z,57.13
2019-01-23T11:15:13.035Z,53.17
2019-01-23T11:17:41.233Z,51.40
2019-01-23T11:20:11.173Z,56.07
2019-01-23T11:22:39.386Z,55.20
2019-01-23T11:25:09.037Z,52.30
2019-01-23T11:27:37.190Z,59.70
2019-01-23T11:30:06.962Z,56.60
2019-01-23T11:32:35.137Z,54.47
2019-01-23T11:35:03.450Z,53.23
2019-01-23T11:37:31.595Z,59.77
2019-01-23T11:40:00.281Z,58.10
2019-01-23T11:42:28.434Z,54.10
2019-01-23T11:44:56.584Z,56.50
2019-01-23T11:47:24.763Z,54.33
2019-01-23T11:49:52.916Z,52.87
2019-01-23T11:52:21.062Z,50.37
2019-01-23T11:54:49.239Z,45.70
2019-01-23T11:57:17.382Z,47.70
2019-01-23T11:59:45.533Z,48.33
2019-01-23T12:02:13.719Z,48.00
2019-01-23T12:04:41.867Z,44.17
2019-01-23T12:07:10.011Z,42.63
2019-01-23T12:09:38.189Z,42.97
2019-01-23T12:12:06.351Z,44.90
2019-01-23T12:14:34.502Z,39.00
2019-01-23T12:17:02.682Z,42.00
2019-01-23T12:19:30.832Z,38.90
2019-01-23T12:21:58.970Z,38.13
2019-01-23T12:24:27.147Z,37.20
2019-01-23T12:26:55.615Z,35.00
2019-01-23T12:29:23.754Z,28.03
2019-01-23T12:31:51.952Z,21.63
2019-01-23T12:34:20.111Z,25.30
2019-01-23T12:36:49.486Z,23.37
2019-01-23T12:39:17.644Z,24.30
2019-01-23T12:41:45.858Z,22.47
2019-01-23T12:44:14.130Z,23.00
2019-01-23T12:46:42.310Z,28.63
2019-01-23T12:49:10.455Z,24.67
2019-01-23T12:51:38.605Z,27.57
2019-01-23T12:54:06.790Z,36.13
2019-01-23T12:56:34.938Z,23.63
2019-01-23T12:59:04.510Z,31.60
2019-01-23T13:01:32.697Z,31.23
2019-01-23T13:04:00.850Z,34.40
2019-01-23T13:06:29.002Z,34.47
2019-01-23T13:08:57.206Z,39.23
2019-01-23T13:11:25.349Z,38.67
2019-01-23T13:13:53.492Z,35.97
2019-01-23T13:16:21.669Z,41.07
2019-01-23T13:18:49.827Z,42.78
2019-01-23T13:21:17.975Z,38.87
2019-01-23T13:23:46.284Z,44.20
2019-01-23T13:26:14.441Z,41.67
2019-01-23T13:28:42.598Z,40.90
2019-01-23T13:31:10.848Z,40.47
2019-01-23T13:33:38.986Z,39.93
2019-01-23T13:36:07.595Z,38.73
2019-01-23T13:38:35.958Z,40.77
2019-01-23T13:41:04.115Z,53.67
2019-01-23T13:43:32.254Z,43.33
2019-01-23T13:46:00.430Z,43.30
2019-01-23T13:48:28.575Z,42.33
2019-01-23T13:50:56.726Z,40.47
2019-01-23T13:53:24.922Z,39.63
2019-01-23T13:55:53.082Z,41.00
2019-01-23T13:58:21.220Z,38.47
2019-01-23T14:00:49.394Z,38.33
2019-01-23T14:03:17.546Z,37.87
2019-01-23T14:05:45.700Z,42.70
2019-01-23T14:08:13.874Z,45.33
2019-01-23T14:10:42.019Z,41.30
2019-01-23T14:13:10.162Z,40.60
2019-01-23T14:15:39.216Z,38.37
2019-01-23T14:18:07.354Z,38.10
2019-01-23T14:20:35.523Z,42.97
2019-01-23T14:23:03.696Z,42.27
2019-01-23T14:25:31.838Z,39.93
2019-01-23T14:27:59.990Z,43.33
2019-01-23T14:30:35.746Z,42.00
2019-01-23T14:33:03.926Z,48.83
2019-01-23T14:35:32.648Z,36.80
2019-01-23T14:38:01.093Z,44.33
2019-01-23T14:40:29.278Z,41.07
2019-01-23T14:42:57.420Z,46.40
2019-01-23T14:45:25.599Z,48.27
2019-01-23T14:47:53.737Z,40.83
2019-01-23T14:50:21.890Z,44.20
2019-01-23T14:52:50.070Z,44.73
2019-01-23T14:55:18.264Z,43.33
2019-01-23T14:57:46.360Z,47.30
2019-01-23T15:00:16.202Z,50.97
2019-01-23T15:02:44.423Z,46.00
2019-01-23T15:05:12.571Z,49.60
2019-01-23T15:07:40.762Z,43.50
2019-01-23T15:10:13.346Z,46.23
2019-01-23T15:12:41.494Z,46.47
2019-01-23T15:15:10.143Z,47.77
2019-01-23T15:17:38.290Z,51.83
2019-01-23T15:20:08.164Z,47.13
2019-01-23T15:22:36.300Z,50.23
2019-01-23T15:25:05.526Z,50.73
2019-01-23T15:27:33.672Z,49.10
2019-01-23T15:30:01.917Z,44.83
2019-01-23T15:32:30.032Z,44.80
2019-01-23T15:34:58.175Z,43.00
2019-01-23T15:37:26.537Z,51.63
2019-01-23T15:39:54.660Z,48.57
2019-01-23T15:42:22.795Z,51.90
2019-01-23T15:44:50.974Z,52.10
2019-01-23T15:47:19.122Z,49.03
2019-01-23T15:49:47.275Z,51.47
2019-01-23T15:52:15.450Z,53.57
2019-01-23T15:54:43.604Z,51.43
2019-01-23T15:57:11.750Z,49.60
2019-01-23T15:59:39.937Z,52.10
2019-01-23T16:02:08.082Z,53.63
2019-01-23T16:04:36.234Z,54.77
2019-01-23T16:07:04.411Z,51.83
2019-01-23T16:09:32.558Z,53.17
2019-01-23T16:12:00.706Z,46.63
2019-01-23T16:14:28.870Z,55.43
2019-01-23T16:16:57.054Z,53.20
2019-01-23T16:19:25.191Z,55.30
2019-01-23T16:21:53.381Z,50.10
2019-01-23T16:24:21.523Z,48.00
2019-01-23T16:26:49.663Z,49.27
2019-01-23T16:29:17.842Z,54.73
2019-01-23T16:31:45.986Z,61.13
2019-01-23T16:34:14.147Z,53.33
2019-01-23T16:36:42.318Z,50.70
2019-01-23T16:39:10.474Z,55.83
2019-01-23T16:41:38.619Z,55.20
2019-01-23T16:44:06.793Z,55.10
2019-01-23T16:46:34.955Z,54.10
2019-01-23T16:49:03.101Z,52.63
2019-01-23T16:51:31.274Z,57.10
2019-01-23T16:53:59.418Z,55.10
2019-01-23T16:56:27.738Z,57.00
2019-01-23T16:58:55.905Z,53.97
2019-01-23T17:01:24.053Z,53.80
2019-01-23T17:03:52.198Z,58.93
2019-01-23T17:06:20.383Z,53.73
2019-01-23T17:08:48.542Z,55.97
2019-01-23T17:11:16.694Z,57.23
2019-01-23T17:13:44.875Z,56.53
2019-01-23T17:16:13.014Z,59.33
2019-01-23T17:18:41.174Z,58.40
2019-01-23T17:21:09.348Z,55.97
2019-01-23T17:23:37.500Z,56.97
2019-01-23T17:26:05.725Z,59.27
2019-01-23T17:28:34.116Z,57.13
2019-01-23T17:31:02.467Z,57.27
2019-01-23T17:33:31.562Z,54.80
2019-01-23T17:35:59.755Z,59.57
2019-01-23T17:38:27.911Z,55.90
2019-01-23T17:40:56.050Z,59.20
2019-01-23T17:43:24.715Z,51.30
2019-01-23T17:45:52.858Z,48.03
2019-01-23T17:48:21.011Z,49.30
2019-01-23T17:50:49.186Z,47.97
2019-01-23T17:53:17.331Z,50.07
2019-01-23T17:55:45.478Z,48.37
2019-01-23T17:58:13.659Z,52.70
2019-01-23T18:00:43.447Z,48.30
2019-01-23T18:03:11.590Z,50.20
2019-01-23T18:05:39.765Z,47.80
2019-01-23T18:08:07.937Z,46.30
2019-01-23T18:10:36.085Z,43.53
2019-01-23T18:13:04.330Z,43.77
2019-01-23T18:15:34.097Z,44.00
2019-01-23T18:18:02.258Z,38.73
2019-01-23T18:20:30.430Z,37.53
2019-01-23T18:22:58.582Z,36.63
2019-01-23T18:25:26.727Z,36.53
2019-01-23T18:27:54.909Z,36.70
2019-01-23T18:30:24.683Z,33.03
2019-01-23T18:32:59.686Z,33.53
2019-01-23T18:35:24.290Z,40.83
2019-01-23T18:37:54.073Z,37.73
2019-01-23T18:40:23.850Z,35.30
2019-01-23T18:43:10.345Z,34.70
2019-01-23T18:45:40.123Z,33.60
2019-01-23T18:48:09.903Z,35.65
2019-01-23T18:50:39.710Z,35.47
2019-01-23T18:53:07.892Z,34.57
2019-01-23T18:55:36.074Z,39.10
2019-01-23T18:58:04.257Z,39.63
2019-01-23T19:00:32.547Z,36.23
2019-01-23T19:03:06.735Z,37.83
2019-01-23T19:05:30.513Z,38.63
2019-01-23T19:07:58.670Z,35.90
2019-01-23T19:10:26.810Z,41.80
2019-01-23T19:12:54.991Z,37.03
2019-01-23T19:15:23.135Z,36.93
2019-01-23T19:17:51.283Z,39.40
2019-01-23T19:20:20.543Z,38.57
2019-01-23T19:22:48.695Z,37.87
2019-01-23T19:25:16.842Z,45.60
2019-01-23T19:27:45.022Z,39.97
2019-01-23T19:30:14.943Z,40.13
2019-01-23T19:32:43.082Z,35.40
2019-01-23T19:35:31.562Z,33.10
2019-01-23T19:38:01.143Z,37.73
2019-01-23T19:40:29.301Z,36.30
2019-01-23T19:42:57.670Z,33.27
2019-01-23T19:45:25.848Z,33.63
2019-01-23T19:47:53.987Z,35.57
2019-01-23T19:50:22.194Z,37.67
2019-01-23T19:52:50.303Z,36.87
2019-01-23T19:55:18.459Z,34.97
2019-01-23T19:57:46.639Z,40.73
2019-01-23T20:00:16.416Z,34.90
2019-01-23T20:02:44.899Z,39.33
2019-01-23T20:05:14.702Z,35.93
2019-01-23T20:07:45.888Z,41.63
2019-01-23T20:10:17.196Z,37.03
2019-01-23T20:12:45.482Z,41.73
2019-01-23T20:15:15.298Z,47.33
2019-01-23T20:17:43.443Z,41.63
2019-01-23T20:20:12.993Z,41.10
2019-01-23T20:22:41.453Z,40.67
2019-01-23T20:25:11.269Z,39.73
2019-01-23T20:27:39.446Z,53.93
2019-01-23T20:30:18.065Z,75.40
2019-01-23T20:32:46.271Z,79.27
2019-01-23T20:35:14.398Z,62.98
2019-01-23T20:37:43.642Z,73.93
2019-01-23T20:40:12.598Z,62.97
2019-01-23T20:42:41.327Z,59.80
2019-01-23T20:45:11.238Z,48.83
2019-01-23T20:47:39.410Z,42.33
2019-01-23T20:50:09.187Z,38.50
2019-01-23T20:52:37.536Z,39.10
2019-01-23T20:55:05.726Z,35.80
2019-01-23T20:57:33.870Z,34.50
2019-01-23T21:00:02.021Z,38.37
2019-01-23T21:02:30.294Z,30.67
2019-01-23T21:04:58.520Z,38.93
2019-01-23T21:07:26.674Z,34.13
2019-01-23T21:09:54.859Z,32.27
2019-01-23T21:12:23.010Z,33.40
2019-01-23T21:14:51.155Z,33.57
2019-01-23T21:17:19.395Z,36.73
2019-01-23T21:19:47.686Z,35.37
2019-01-23T21:22:15.833Z,40.13
2019-01-23T21:24:44.199Z,34.87
2019-01-23T21:27:12.354Z,43.17
2019-01-23T21:29:40.546Z,38.10
2019-01-23T21:32:08.689Z,40.03
2019-01-23T21:34:36.851Z,45.40
2019-01-23T21:37:07.322Z,44.27
2019-01-23T21:39:35.538Z,49.43
2019-01-23T21:42:03.700Z,46.47
2019-01-23T21:44:31.838Z,51.43
2019-01-23T21:47:00.015Z,49.77
2019-01-23T21:49:28.167Z,47.70
2019-01-23T21:51:56.307Z,45.30
2019-01-23T21:54:24.493Z,51.73
2019-01-23T21:56:52.643Z,46.10
2019-01-23T21:59:20.828Z,51.33
2019-01-23T22:01:49.018Z,43.43
2019-01-23T22:04:17.185Z,46.48
2019-01-23T22:06:45.329Z,50.07
2019-01-23T22:09:13.508Z,51.47
2019-01-23T22:11:43.711Z,47.27
2019-01-23T22:14:11.712Z,46.60
2019-01-23T22:16:39.882Z,46.50
2019-01-23T22:19:08.186Z,44.23
2019-01-23T22:21:36.546Z,43.67
2019-01-23T22:24:04.741Z,43.73
2019-01-23T22:26:32.876Z,45.63
2019-01-23T22:29:01.366Z,43.90
2019-01-23T22:31:29.549Z,44.33
2019-01-23T22:33:57.694Z,38.97
2019-01-23T22:36:25.874Z,45.90
2019-01-23T22:38:54.309Z,40.83
2019-01-23T22:41:22.459Z,43.57
2019-01-23T22:43:50.604Z,40.50
2019-01-23T22:46:18.769Z,41.97
2019-01-23T22:48:46.919Z,42.87
2019-01-23T22:51:15.066Z,42.23
2019-01-23T22:53:43.256Z,37.80
2019-01-23T22:56:11.398Z,44.70
2019-01-23T22:58:39.542Z,40.73
2019-01-23T23:01:09.609Z,40.17
2019-01-23T23:03:38.634Z,44.00
2019-01-23T23:06:06.783Z,42.97
2019-01-23T23:08:34.953Z,36.80
2019-01-23T23:11:03.226Z,43.57
2019-01-23T23:13:31.374Z,48.07
2019-01-23T23:15:59.552Z,45.47
2019-01-23T23:18:27.705Z,41.40
2019-01-23T23:20:56.104Z,45.03
2019-01-23T23:23:24.275Z,44.23
2019-01-23T23:25:52.418Z,41.83
2019-01-23T23:28:25.946Z,47.13
2019-01-23T23:30:50.756Z,49.37
2019-01-23T23:33:18.921Z,44.13
2019-01-23T23:35:47.146Z,46.30
2019-01-23T23:38:15.315Z,46.37
2019-01-23T23:40:43.459Z,42.50
2019-01-23T23:43:11.628Z,44.53
2019-01-23T23:45:39.802Z,45.07
2019-01-23T23:48:07.986Z,43.77
2019-01-23T23:50:36.130Z,42.37
2019-01-23T23:53:04.311Z,44.10
2019-01-23T23:55:32.459Z,41.63
2019-01-23T23:58:00.612Z,46.87
